Terminal Aerodrome Forecast
Issued by NWS

Home | Current Version | Previous Version | Graphics & Text | Print | Product List | Glossary On
Versions: 1 2 3 4 5 6 7 8 9 10 11 12 13 14 15 16 17 18 19 20 21 22 23 24 25 26 27
000
FTUS43 KGRB 190200 AAB
TAFATW
TAF AMD
KATW 190214Z 1902/1924 16006KT P6SM VCSH SCT030 BKN080
      TEMPO 1902/1903 2SM +TSRA BKN012CB
     FM190400 17003KT 4SM BR VCSH BKN012 OVC100
      TEMPO 1906/1910 2SM -TSRA BKN015CB
     FM191400 22006KT 6SM BR SCT022 BKN040 PROB30 1914/1919 4SM
      -SHRA OVC025
     FM191900 28008KT 4SM BR VCSH BKN035
      TEMPO 1920/1924 1SM +TSRA BR OVC018CB=

USA.gov is the U.S. government's official web portal to all federal, state and local government web resources and services.